createdAt,value
2016-11-26T00:01:56.288Z,7.45
2016-11-26T00:02:38.009Z,7.37
2016-11-26T00:03:19.745Z,7.43
2016-11-26T00:04:01.449Z,7.43
2016-11-26T00:04:42.967Z,7.42
2016-11-26T00:05:24.621Z,7.37
2016-11-26T00:07:19.319Z,7.43
2016-11-26T00:08:00.968Z,7.49
2016-11-26T00:08:42.658Z,7.34
2016-11-26T00:09:24.417Z,7.39
2016-11-26T00:11:19.035Z,7.46
2016-11-26T00:12:00.767Z,7.34
2016-11-26T00:13:50.221Z,7.46
2016-11-26T00:14:32.029Z,7.34
2016-11-26T00:15:13.723Z,7.37
2016-11-26T00:15:55.435Z,7.46
2016-11-26T00:16:37.160Z,7.42
2016-11-26T00:17:18.868Z,7.3
2016-11-26T00:18:00.607Z,7.27
2016-11-26T00:18:42.324Z,7.31
2016-11-26T00:19:24.015Z,7.42
2016-11-26T00:20:05.659Z,7.27
2016-11-26T00:20:47.358Z,7.31
2016-11-26T00:21:28.984Z,7.31
2016-11-26T00:22:10.725Z,7.37
2016-11-26T00:22:52.452Z,7.31
2016-11-26T00:23:34.140Z,7.4
2016-11-26T00:24:15.844Z,7.3
2016-11-26T00:24:57.439Z,7.4
2016-11-26T00:26:52.057Z,7.4
2016-11-26T00:27:33.786Z,7.31
2016-11-26T00:28:15.514Z,7.4
2016-11-26T00:28:57.182Z,7.4
2016-11-26T00:31:12.645Z,7.42
2016-11-26T00:31:54.330Z,7.4
2016-11-26T00:33:54.341Z,7.49
2016-11-26T00:34:36.174Z,7.37
2016-11-26T00:35:17.888Z,7.48
2016-11-26T00:35:59.485Z,7.43
2016-11-26T00:36:41.228Z,7.5
2016-11-26T00:38:20.253Z,7.45
2016-11-26T00:40:20.387Z,7.45
2016-11-26T00:42:09.655Z,7.49
2016-11-26T00:43:58.810Z,7.5
2016-11-26T00:44:40.627Z,7.55
2016-11-26T00:45:22.287Z,7.57
2016-11-26T00:46:03.954Z,7.49
2016-11-26T00:47:58.544Z,7.57
2016-11-26T00:50:13.979Z,7.53
2016-11-26T00:50:55.659Z,7.53
2016-11-26T00:52:50.132Z,7.52
2016-11-26T00:53:31.805Z,7.52
2016-11-26T00:54:13.445Z,7.5
2016-11-26T00:56:08.197Z,7.5
2016-11-26T00:56:49.696Z,7.53
2016-11-26T00:58:44.183Z,7.52
2016-11-26T00:59:25.855Z,7.49
2016-11-26T01:00:07.425Z,7.5
2016-11-26T01:00:49.044Z,7.53
2016-11-26T01:01:30.787Z,7.52
2016-11-26T01:02:12.240Z,7.48
2016-11-26T01:04:12.188Z,7.55
2016-11-26T01:04:53.817Z,7.49
2016-11-26T01:05:35.532Z,7.5
2016-11-26T01:06:17.367Z,7.52
2016-11-26T01:06:59.051Z,7.53
2016-11-26T01:08:58.871Z,7.52
2016-11-26T01:09:40.528Z,7.58
2016-11-26T01:11:35.226Z,7.58
2016-11-26T01:12:16.871Z,7.53
2016-11-26T01:12:58.567Z,7.55
2016-11-26T01:13:40.193Z,7.58
2016-11-26T01:14:21.836Z,7.53
2016-11-26T01:15:03.501Z,7.52
2016-11-26T01:17:18.883Z,7.53
2016-11-26T01:18:00.698Z,7.53
2016-11-26T01:19:39.615Z,7.52
2016-11-26T01:20:21.337Z,7.52
2016-11-26T01:21:03.044Z,7.55
2016-11-26T01:21:44.739Z,7.48
2016-11-26T01:22:26.412Z,7.53
2016-11-26T01:23:08.116Z,7.57
2016-11-26T01:23:49.815Z,7.57
2016-11-26T01:24:31.570Z,7.49
2016-11-26T01:25:13.329Z,7.52
2016-11-26T01:25:54.967Z,7.53
2016-11-26T01:26:36.555Z,7.5
2016-11-26T01:28:31.260Z,7.61
2016-11-26T01:29:12.995Z,7.6
2016-11-26T01:29:54.726Z,7.68
2016-11-26T01:30:36.464Z,7.53
2016-11-26T01:31:18.147Z,7.58
2016-11-26T01:31:59.768Z,7.52
2016-11-26T01:32:41.511Z,7.57
2016-11-26T01:33:23.297Z,7.5
2016-11-26T01:34:04.896Z,7.55
2016-11-26T01:34:46.617Z,7.57
2016-11-26T01:35:28.212Z,7.57
2016-11-26T01:37:43.672Z,7.6
2016-11-26T01:38:25.400Z,7.6
2016-11-26T01:39:07.040Z,7.53
2016-11-26T01:41:06.970Z,7.58
2016-11-26T01:41:48.696Z,7.55
2016-11-26T01:42:30.365Z,7.55
2016-11-26T01:43:12.036Z,7.6
2016-11-26T01:45:06.631Z,7.57
2016-11-26T01:45:48.373Z,7.53
2016-11-26T01:47:37.643Z,7.64
2016-11-26T01:48:19.386Z,7.64
2016-11-26T01:49:01.063Z,7.58
2016-11-26T01:49:42.695Z,7.61
2016-11-26T01:51:57.897Z,7.61
2016-11-26T01:52:38.681Z,7.6
2016-11-26T01:53:19.743Z,7.53
2016-11-26T01:54:00.736Z,7.57
2016-11-26T01:55:55.259Z,7.58
2016-11-26T01:56:36.945Z,7.6
2016-11-26T01:58:15.932Z,7.57
2016-11-26T01:58:57.671Z,7.58
2016-11-26T01:59:39.441Z,7.57
2016-11-26T02:01:54.421Z,7.57
2016-11-26T02:02:34.955Z,7.53
2016-11-26T02:03:15.493Z,7.58
2016-11-26T02:03:56.074Z,7.52
2016-11-26T02:04:36.695Z,7.53
2016-11-26T02:05:17.230Z,7.57
2016-11-26T02:05:57.765Z,7.57
2016-11-26T02:06:38.305Z,7.53
2016-11-26T02:07:18.838Z,7.52
2016-11-26T02:07:59.369Z,7.55
2016-11-26T02:08:39.911Z,7.61
2016-11-26T02:09:20.453Z,7.55
2016-11-26T02:10:00.984Z,7.58
2016-11-26T02:10:41.527Z,7.6
2016-11-26T02:11:22.063Z,7.58
2016-11-26T02:12:02.597Z,7.57
2016-11-26T02:12:43.141Z,7.58
2016-11-26T02:13:23.673Z,7.68
2016-11-26T02:14:04.208Z,7.64
2016-11-26T02:14:44.756Z,7.53
2016-11-26T02:15:25.295Z,7.61
2016-11-26T02:16:05.833Z,7.58
2016-11-26T02:16:46.414Z,7.57
2016-11-26T02:17:26.959Z,7.58
2016-11-26T02:18:07.509Z,7.64
2016-11-26T02:18:48.043Z,7.57
2016-11-26T02:19:28.586Z,7.61
2016-11-26T02:20:09.122Z,7.68
2016-11-26T02:20:49.661Z,7.71
2016-11-26T02:21:30.203Z,7.63
2016-11-26T02:22:10.742Z,7.67
2016-11-26T02:22:51.283Z,7.67
2016-11-26T02:23:31.826Z,7.71
2016-11-26T02:24:12.367Z,7.72
2016-11-26T02:24:52.902Z,7.72
2016-11-26T02:25:33.444Z,7.71
2016-11-26T02:26:13.977Z,7.72
2016-11-26T02:26:54.509Z,7.71
2016-11-26T02:27:35.049Z,7.72
2016-11-26T02:28:15.585Z,7.72
2016-11-26T02:28:56.119Z,7.71
2016-11-26T02:29:36.658Z,7.71
2016-11-26T02:30:17.197Z,7.71
2016-11-26T02:30:57.737Z,7.75
2016-11-26T02:31:38.275Z,7.77
2016-11-26T02:32:18.803Z,7.72
2016-11-26T02:32:59.342Z,7.67
2016-11-26T02:33:39.893Z,7.68
2016-11-26T02:34:20.423Z,7.67
2016-11-26T02:35:00.960Z,7.72
2016-11-26T02:35:41.500Z,7.72
2016-11-26T02:36:22.038Z,7.67
2016-11-26T02:37:02.568Z,7.72
2016-11-26T02:37:43.111Z,7.69
2016-11-26T02:38:23.647Z,7.71
2016-11-26T02:39:04.189Z,7.69
2016-11-26T02:39:44.728Z,7.67
2016-11-26T02:40:25.265Z,7.69
2016-11-26T02:41:05.807Z,7.67
2016-11-26T02:41:46.349Z,7.71
2016-11-26T02:42:26.878Z,7.64
2016-11-26T02:43:07.415Z,7.68
2016-11-26T02:43:47.951Z,7.67
2016-11-26T02:44:28.494Z,7.68
2016-11-26T02:45:09.033Z,7.67
2016-11-26T02:45:49.569Z,7.63
2016-11-26T02:46:30.107Z,7.55
2016-11-26T02:47:10.663Z,7.72
2016-11-26T02:47:51.201Z,7.67
2016-11-26T02:48:31.744Z,7.61
2016-11-26T02:49:12.276Z,7.68
2016-11-26T02:49:52.812Z,7.57
2016-11-26T02:50:33.416Z,7.57
2016-11-26T02:51:13.952Z,7.6
2016-11-26T02:51:54.492Z,7.53
2016-11-26T02:52:35.028Z,7.53
2016-11-26T02:53:15.561Z,7.61
2016-11-26T02:53:56.102Z,7.52
2016-11-26T02:54:36.640Z,7.58
2016-11-26T02:55:17.182Z,7.57
2016-11-26T02:55:57.717Z,7.57
2016-11-26T02:56:38.262Z,7.52
2016-11-26T02:57:18.794Z,7.53
2016-11-26T02:57:59.330Z,7.49
2016-11-26T02:58:39.869Z,7.53
2016-11-26T02:59:20.416Z,7.53
2016-11-26T03:00:00.940Z,7.5
2016-11-26T03:00:41.479Z,7.53
2016-11-26T03:01:22.021Z,7.55
2016-11-26T03:02:02.556Z,7.53
2016-11-26T03:02:43.098Z,7.52
2016-11-26T03:03:23.636Z,7.53
2016-11-26T03:04:04.168Z,7.52
2016-11-26T03:04:44.712Z,7.52
2016-11-26T03:05:25.250Z,7.48
2016-11-26T03:06:05.787Z,7.48
2016-11-26T03:06:46.328Z,7.46
2016-11-26T03:07:26.867Z,7.57
2016-11-26T03:08:07.404Z,7.52
2016-11-26T03:08:47.940Z,7.5
2016-11-26T03:09:28.474Z,7.55
2016-11-26T03:10:09.009Z,7.53
2016-11-26T03:10:49.553Z,7.52
2016-11-26T03:11:30.081Z,7.58
2016-11-26T03:12:10.630Z,7.49
2016-11-26T03:12:51.167Z,7.52
2016-11-26T03:13:31.698Z,7.52
2016-11-26T03:14:12.240Z,7.55
2016-11-26T03:14:52.777Z,7.52
2016-11-26T03:15:33.320Z,7.58
2016-11-26T03:16:13.862Z,7.55
2016-11-26T03:16:54.400Z,7.52
2016-11-26T03:17:34.939Z,7.53
2016-11-26T03:18:15.480Z,7.48
2016-11-26T03:18:56.018Z,7.53
2016-11-26T03:19:36.555Z,7.52
2016-11-26T03:20:17.095Z,7.48
2016-11-26T03:20:57.634Z,7.48
2016-11-26T03:21:38.174Z,7.52
2016-11-26T03:22:18.715Z,7.53
2016-11-26T03:22:59.254Z,7.45
2016-11-26T03:23:39.791Z,7.49
2016-11-26T03:24:20.336Z,7.55
2016-11-26T03:25:00.870Z,7.53
2016-11-26T03:25:41.409Z,7.55
2016-11-26T03:26:21.940Z,7.53
2016-11-26T03:27:02.480Z,7.52
2016-11-26T03:27:43.019Z,7.5
2016-11-26T03:28:23.559Z,7.48
2016-11-26T03:29:04.101Z,7.53
2016-11-26T03:29:44.635Z,7.5
2016-11-26T03:30:25.170Z,7.48
2016-11-26T03:31:05.705Z,7.53
2016-11-26T03:31:46.242Z,7.57
2016-11-26T03:32:26.793Z,7.55
2016-11-26T03:33:07.345Z,7.53
2016-11-26T03:33:47.877Z,7.52
2016-11-26T03:34:28.417Z,7.55
2016-11-26T03:35:08.957Z,7.55
2016-11-26T03:35:49.504Z,7.53
2016-11-26T03:36:30.041Z,7.5
2016-11-26T03:37:10.581Z,7.45
2016-11-26T03:37:51.118Z,7.49
2016-11-26T03:38:31.658Z,7.52
2016-11-26T03:39:12.199Z,7.52
2016-11-26T03:39:52.735Z,7.46
2016-11-26T03:40:33.278Z,7.5
2016-11-26T03:41:13.808Z,7.49
2016-11-26T03:41:54.342Z,7.52
2016-11-26T03:42:34.874Z,7.42
2016-11-26T03:43:15.418Z,7.52
2016-11-26T03:43:55.952Z,7.52
2016-11-26T03:44:36.490Z,7.57
2016-11-26T03:45:17.037Z,7.52
2016-11-26T03:45:57.574Z,7.52
2016-11-26T03:46:38.118Z,7.52
2016-11-26T03:47:18.652Z,7.55
2016-11-26T03:47:59.190Z,7.5
2016-11-26T03:48:39.723Z,7.48
2016-11-26T03:49:20.258Z,7.53
2016-11-26T03:50:00.789Z,7.58
2016-11-26T03:50:41.338Z,7.5
2016-11-26T03:51:21.868Z,7.52
2016-11-26T03:52:02.406Z,7.48
2016-11-26T03:52:42.945Z,7.58
2016-11-26T03:53:23.477Z,7.57
2016-11-26T03:54:04.018Z,7.48
2016-11-26T03:54:44.551Z,7.48
2016-11-26T03:55:25.092Z,7.53
2016-11-26T03:56:05.625Z,7.55
2016-11-26T03:56:46.162Z,7.5
2016-11-26T03:57:26.699Z,7.5
2016-11-26T03:58:07.230Z,7.5
2016-11-26T03:58:47.765Z,7.61
2016-11-26T03:59:28.333Z,7.52
2016-11-26T04:00:08.866Z,7.6
2016-11-26T04:00:49.409Z,7.6
2016-11-26T04:01:29.949Z,7.53
2016-11-26T04:02:10.487Z,7.53
2016-11-26T04:02:51.026Z,7.53
2016-11-26T04:03:31.564Z,7.58
2016-11-26T04:04:12.104Z,7.58
2016-11-26T04:04:52.644Z,7.57
2016-11-26T04:05:33.172Z,7.61
2016-11-26T04:06:13.714Z,7.57
2016-11-26T04:06:54.254Z,7.55
2016-11-26T04:07:34.792Z,7.61
2016-11-26T04:08:15.319Z,7.6
2016-11-26T04:08:55.843Z,7.6
2016-11-26T04:09:36.384Z,7.6
2016-11-26T04:10:16.914Z,7.57
2016-11-26T04:10:57.458Z,7.53
2016-11-26T04:11:38.015Z,7.53
2016-11-26T04:12:18.556Z,7.53
2016-11-26T04:12:59.092Z,7.58
2016-11-26T04:13:39.627Z,7.55
2016-11-26T04:14:20.159Z,7.5
2016-11-26T04:15:00.695Z,7.48
2016-11-26T04:15:41.231Z,7.53
2016-11-26T04:16:21.766Z,7.55
2016-11-26T04:17:02.313Z,7.49
2016-11-26T04:17:42.846Z,7.52
2016-11-26T04:18:23.410Z,7.53
2016-11-26T04:19:03.946Z,7.5
2016-11-26T04:19:44.491Z,7.53
2016-11-26T04:20:25.085Z,7.57
2016-11-26T04:21:05.619Z,7.49
2016-11-26T04:21:46.156Z,7.58
2016-11-26T04:22:26.694Z,7.57
2016-11-26T04:23:07.237Z,7.52
2016-11-26T04:23:47.777Z,7.57
2016-11-26T04:24:28.311Z,7.52
2016-11-26T04:25:08.851Z,7.57
2016-11-26T04:25:49.389Z,7.53
2016-11-26T04:26:29.922Z,7.52
2016-11-26T04:27:10.461Z,7.55
2016-11-26T04:27:50.998Z,7.57
2016-11-26T04:28:31.540Z,7.58
2016-11-26T04:29:12.073Z,7.48
2016-11-26T04:29:52.596Z,7.5
2016-11-26T04:30:33.144Z,7.52
2016-11-26T04:31:13.672Z,7.48
2016-11-26T04:31:54.210Z,7.43
2016-11-26T04:32:34.751Z,7.39
2016-11-26T04:33:15.287Z,7.48
2016-11-26T04:33:55.820Z,7.49
2016-11-26T04:34:36.360Z,7.55
2016-11-26T04:35:16.897Z,7.48
2016-11-26T04:35:57.440Z,7.45
2016-11-26T04:36:37.977Z,7.43
2016-11-26T04:37:18.514Z,7.46
2016-11-26T04:37:59.047Z,7.43
2016-11-26T04:38:39.579Z,7.45
2016-11-26T04:39:20.119Z,7.53
2016-11-26T04:40:00.653Z,7.48
2016-11-26T04:40:41.195Z,7.39
2016-11-26T04:41:21.732Z,7.43
2016-11-26T04:42:02.271Z,7.43
2016-11-26T04:42:42.812Z,7.46
2016-11-26T04:43:23.362Z,7.42
2016-11-26T04:44:03.902Z,7.46
2016-11-26T04:44:44.440Z,7.37
2016-11-26T04:45:24.977Z,7.4
2016-11-26T04:46:05.519Z,7.4
2016-11-26T04:46:46.061Z,7.42
2016-11-26T04:47:26.606Z,7.39
2016-11-26T04:48:07.148Z,7.48
2016-11-26T04:48:47.689Z,7.37
2016-11-26T04:49:28.226Z,7.46
2016-11-26T04:50:08.769Z,7.45
2016-11-26T04:50:49.311Z,7.43
2016-11-26T04:51:29.849Z,7.46
2016-11-26T04:52:10.382Z,7.43
2016-11-26T04:52:50.930Z,7.42
2016-11-26T04:53:31.455Z,7.58
2016-11-26T04:54:11.995Z,7.48
2016-11-26T04:54:52.530Z,7.46
2016-11-26T04:55:33.078Z,7.52
2016-11-26T04:56:13.620Z,7.46
2016-11-26T04:56:54.159Z,7.53
2016-11-26T04:57:34.699Z,7.52
2016-11-26T04:58:15.238Z,7.53
2016-11-26T04:58:55.775Z,7.53
2016-11-26T04:59:36.318Z,7.52
2016-11-26T05:00:16.856Z,7.6
2016-11-26T05:00:57.394Z,7.55
2016-11-26T05:01:37.933Z,7.42
2016-11-26T05:02:18.477Z,7.42
2016-11-26T05:02:59.011Z,7.49
2016-11-26T05:03:39.545Z,7.49
2016-11-26T05:04:20.097Z,7.45
2016-11-26T05:05:00.638Z,7.5
2016-11-26T05:05:41.186Z,7.49
2016-11-26T05:06:21.746Z,7.5
2016-11-26T05:07:02.290Z,7.46
2016-11-26T05:07:42.829Z,7.46
2016-11-26T05:08:23.377Z,7.4
2016-11-26T05:09:03.910Z,7.46
2016-11-26T05:09:44.454Z,7.45
2016-11-26T05:10:24.995Z,7.34
2016-11-26T05:11:05.538Z,7.5
2016-11-26T05:11:46.079Z,7.48
2016-11-26T05:12:26.616Z,7.5
2016-11-26T05:13:07.155Z,7.4
2016-11-26T05:13:47.693Z,7.46
2016-11-26T05:14:28.233Z,7.4
2016-11-26T05:15:08.768Z,7.55
2016-11-26T05:15:49.304Z,7.52
2016-11-26T05:16:29.844Z,7.55
2016-11-26T05:17:10.382Z,7.48
2016-11-26T05:17:50.923Z,7.48
2016-11-26T05:18:31.460Z,7.48
2016-11-26T05:19:12.003Z,7.52
2016-11-26T05:19:52.551Z,7.42
2016-11-26T05:20:33.075Z,7.58
2016-11-26T05:21:13.622Z,7.5
2016-11-26T05:21:54.180Z,7.6
2016-11-26T05:22:34.721Z,7.5
2016-11-26T05:23:15.263Z,7.49
2016-11-26T05:23:55.797Z,7.49
2016-11-26T05:24:36.344Z,7.48
2016-11-26T05:25:16.885Z,7.53
2016-11-26T05:25:57.418Z,7.58
2016-11-26T05:26:37.959Z,7.58
2016-11-26T05:27:18.496Z,7.57
2016-11-26T05:27:59.033Z,7.48
2016-11-26T05:28:39.602Z,7.5
2016-11-26T05:29:20.147Z,7.5
2016-11-26T05:30:00.688Z,7.52
2016-11-26T05:30:41.229Z,7.39
2016-11-26T05:31:21.770Z,7.45
2016-11-26T05:32:02.309Z,7.37
2016-11-26T05:32:42.848Z,7.52
2016-11-26T05:33:23.378Z,7.4
2016-11-26T05:34:03.925Z,7.42
2016-11-26T05:34:44.460Z,7.39
2016-11-26T05:35:25.002Z,7.46
2016-11-26T05:36:05.555Z,7.32
2016-11-26T05:36:46.090Z,7.49
2016-11-26T05:37:26.625Z,7.48
2016-11-26T05:38:07.164Z,7.49
2016-11-26T05:38:47.701Z,7.39
2016-11-26T05:39:28.237Z,7.5
2016-11-26T05:40:08.774Z,7.49
2016-11-26T05:40:49.331Z,7.48
2016-11-26T05:41:29.880Z,7.48
2016-11-26T05:42:10.420Z,7.52
2016-11-26T05:42:50.967Z,7.5
2016-11-26T05:43:31.491Z,7.55
2016-11-26T05:44:12.033Z,7.5
2016-11-26T05:44:52.573Z,7.42
2016-11-26T05:45:33.141Z,7.43
2016-11-26T05:46:13.679Z,7.52
2016-11-26T05:46:54.224Z,7.52
2016-11-26T05:47:34.763Z,7.46
2016-11-26T05:48:15.352Z,7.48
2016-11-26T05:48:55.889Z,7.52
2016-11-26T05:49:36.426Z,7.48
2016-11-26T05:50:16.961Z,7.52
2016-11-26T05:50:57.492Z,7.5
2016-11-26T05:51:38.031Z,7.53
2016-11-26T05:52:18.570Z,7.48
2016-11-26T05:52:59.099Z,7.55
2016-11-26T05:53:39.641Z,7.48
2016-11-26T05:54:20.177Z,7.46
2016-11-26T05:55:00.719Z,7.5
2016-11-26T05:55:41.263Z,7.43
2016-11-26T05:56:21.795Z,7.55
2016-11-26T05:57:02.336Z,7.53
2016-11-26T05:57:42.878Z,7.49
2016-11-26T05:58:23.416Z,7.48
2016-11-26T05:59:03.958Z,7.5
2016-11-26T05:59:44.514Z,7.52
2016-11-26T06:00:25.042Z,7.57
2016-11-26T06:01:05.583Z,7.53
2016-11-26T06:01:46.120Z,7.48
2016-11-26T06:02:26.654Z,7.5
2016-11-26T06:03:07.192Z,7.5
2016-11-26T06:03:47.729Z,7.49
2016-11-26T06:04:28.273Z,7.52
2016-11-26T06:05:08.810Z,7.53
2016-11-26T06:05:49.352Z,7.45
2016-11-26T06:06:29.892Z,7.6
2016-11-26T06:07:10.435Z,7.49
2016-11-26T06:07:50.976Z,7.55
2016-11-26T06:08:31.500Z,7.6
2016-11-26T06:09:12.036Z,7.55
2016-11-26T06:09:52.576Z,7.53
2016-11-26T06:10:33.107Z,7.55
2016-11-26T06:11:13.644Z,7.46
2016-11-26T06:11:54.184Z,7.5
2016-11-26T06:12:34.724Z,7.58
2016-11-26T06:13:15.259Z,7.48
2016-11-26T06:13:55.791Z,7.49
2016-11-26T06:14:36.337Z,7.5
2016-11-26T06:15:16.872Z,7.53
2016-11-26T06:15:57.419Z,7.55
2016-11-26T06:16:37.950Z,7.46
2016-11-26T06:17:18.485Z,7.53
2016-11-26T06:17:59.023Z,7.49
2016-11-26T06:18:39.561Z,7.49
2016-11-26T06:19:20.096Z,7.53
2016-11-26T06:20:00.643Z,7.5
2016-11-26T06:20:41.176Z,7.53
2016-11-26T06:21:21.719Z,7.52
2016-11-26T06:22:02.256Z,7.45
2016-11-26T06:22:42.795Z,7.55
2016-11-26T06:23:23.334Z,7.52
2016-11-26T06:24:03.864Z,7.57
2016-11-26T06:24:44.401Z,7.5
2016-11-26T06:25:24.940Z,7.52
2016-11-26T06:26:05.480Z,7.48
2016-11-26T06:26:46.021Z,7.49
2016-11-26T06:27:26.564Z,7.55
2016-11-26T06:28:07.117Z,7.42
2016-11-26T06:28:47.735Z,7.53
2016-11-26T06:29:28.272Z,7.46
2016-11-26T06:30:08.864Z,7.55
2016-11-26T06:30:49.405Z,7.46
2016-11-26T06:31:29.942Z,7.42
2016-11-26T06:32:10.547Z,7.52
2016-11-26T06:32:51.082Z,7.49
2016-11-26T06:33:31.624Z,7.39
2016-11-26T06:34:12.164Z,7.6
2016-11-26T06:34:52.723Z,7.4
2016-11-26T06:35:33.315Z,7.49
2016-11-26T06:36:13.848Z,7.48
2016-11-26T06:36:54.384Z,7.42
2016-11-26T06:37:35.007Z,7.53
2016-11-26T06:38:15.540Z,7.53
2016-11-26T06:38:56.148Z,7.49
2016-11-26T06:39:36.689Z,7.53
2016-11-26T06:40:17.229Z,7.4
2016-11-26T06:40:57.781Z,7.46
2016-11-26T06:41:38.326Z,7.49
2016-11-26T06:42:18.864Z,7.48
2016-11-26T06:42:59.395Z,7.4
2016-11-26T06:43:39.939Z,7.46
2016-11-26T06:44:20.473Z,7.46
2016-11-26T06:45:01.076Z,7.43
2016-11-26T06:45:41.604Z,7.43
2016-11-26T06:46:22.149Z,7.43
2016-11-26T06:47:02.693Z,7.45
2016-11-26T06:47:43.228Z,7.43
2016-11-26T06:48:23.772Z,7.39
2016-11-26T06:49:04.363Z,7.46
2016-11-26T06:49:44.903Z,7.48
2016-11-26T06:50:25.462Z,7.35
2016-11-26T06:51:06.005Z,7.4
2016-11-26T06:51:46.549Z,7.46
2016-11-26T06:52:27.130Z,7.42
2016-11-26T06:53:07.663Z,7.43
2016-11-26T06:53:48.234Z,7.4
2016-11-26T06:54:28.759Z,7.48
2016-11-26T06:55:09.285Z,7.45
2016-11-26T06:55:49.920Z,7.39
2016-11-26T06:56:30.456Z,7.5
2016-11-26T06:57:10.997Z,7.45
2016-11-26T06:57:51.539Z,7.4
2016-11-26T06:58:32.077Z,7.53
2016-11-26T06:59:12.610Z,7.49
2016-11-26T06:59:53.145Z,7.43
2016-11-26T07:00:33.685Z,7.49
2016-11-26T07:01:14.256Z,7.52
2016-11-26T07:01:54.799Z,7.45
2016-11-26T07:02:35.345Z,7.42
2016-11-26T07:03:15.890Z,7.46
2016-11-26T07:03:56.430Z,7.55
2016-11-26T07:04:36.968Z,7.48
2016-11-26T07:05:17.571Z,7.52
2016-11-26T07:05:58.099Z,7.53
2016-11-26T07:06:38.690Z,7.48
2016-11-26T07:07:19.229Z,7.43
2016-11-26T07:07:59.775Z,7.46
2016-11-26T07:08:40.318Z,7.5
2016-11-26T07:09:20.855Z,7.39
2016-11-26T07:10:01.397Z,7.43
2016-11-26T07:10:41.937Z,7.48
2016-11-26T07:11:22.474Z,7.45
2016-11-26T07:12:03.016Z,7.42
2016-11-26T07:12:43.548Z,7.46
2016-11-26T07:13:24.080Z,7.45
2016-11-26T07:14:04.620Z,7.37
2016-11-26T07:14:45.250Z,7.39
2016-11-26T07:15:25.772Z,7.46
2016-11-26T07:16:06.308Z,7.55
2016-11-26T07:16:46.845Z,7.45
2016-11-26T07:17:27.379Z,7.49
2016-11-26T07:18:08.079Z,7.48
2016-11-26T07:18:48.623Z,7.55
2016-11-26T07:19:29.160Z,7.5
2016-11-26T07:20:09.690Z,7.5
2016-11-26T07:20:50.238Z,7.48
2016-11-26T07:21:30.795Z,7.5
2016-11-26T07:22:11.406Z,7.48
2016-11-26T07:22:51.980Z,7.5
2016-11-26T07:23:32.523Z,7.52
2016-11-26T07:24:13.065Z,7.58
2016-11-26T07:24:53.646Z,7.53
2016-11-26T07:25:34.187Z,7.49
2016-11-26T07:26:14.726Z,7.52
2016-11-26T07:26:55.264Z,7.52
2016-11-26T07:27:35.884Z,7.55
2016-11-26T07:28:16.428Z,7.5
2016-11-26T07:28:56.967Z,7.48
2016-11-26T07:29:37.503Z,7.5
2016-11-26T07:30:18.047Z,7.55
2016-11-26T07:30:58.624Z,7.53
2016-11-26T07:31:39.171Z,7.5
2016-11-26T07:32:19.706Z,7.58
2016-11-26T07:33:00.246Z,7.58
2016-11-26T07:33:40.787Z,7.57
2016-11-26T07:34:21.356Z,7.61
2016-11-26T07:35:01.892Z,7.63
2016-11-26T07:35:42.439Z,7.57
2016-11-26T07:36:22.982Z,7.55
2016-11-26T07:37:03.514Z,7.58
2016-11-26T07:37:44.055Z,7.6
2016-11-26T07:38:24.599Z,7.64
2016-11-26T07:39:05.137Z,7.64
2016-11-26T07:39:45.673Z,7.68
2016-11-26T07:40:26.203Z,7.68
2016-11-26T07:41:06.742Z,7.6
2016-11-26T07:41:47.285Z,7.71
2016-11-26T07:42:27.824Z,7.63
2016-11-26T07:43:08.364Z,7.61
2016-11-26T07:43:48.892Z,7.64
2016-11-26T07:44:29.425Z,7.63
2016-11-26T07:45:09.964Z,7.69
2016-11-26T07:45:50.505Z,7.64
2016-11-26T07:46:31.048Z,7.75
2016-11-26T07:47:11.590Z,7.63
2016-11-26T07:47:52.125Z,7.69
2016-11-26T07:48:32.685Z,7.71
2016-11-26T07:49:13.230Z,7.67
2016-11-26T07:49:53.765Z,7.64
2016-11-26T07:50:34.307Z,7.67
2016-11-26T07:51:14.844Z,7.75
2016-11-26T07:51:55.377Z,7.74
2016-11-26T07:52:35.914Z,7.77
2016-11-26T07:53:16.448Z,7.77
2016-11-26T07:53:56.985Z,7.63
2016-11-26T07:54:37.529Z,7.72
2016-11-26T07:55:18.067Z,7.72
2016-11-26T07:55:58.611Z,7.71
2016-11-26T07:56:39.148Z,7.74
2016-11-26T07:57:19.693Z,7.74
2016-11-26T07:58:00.227Z,7.68
2016-11-26T07:58:40.766Z,7.8
2016-11-26T07:59:21.307Z,7.77
2016-11-26T08:00:01.844Z,7.77
2016-11-26T08:00:42.390Z,7.8
2016-11-26T08:01:22.931Z,7.82
2016-11-26T08:02:03.470Z,7.83
2016-11-26T08:02:44.020Z,7.83
2016-11-26T08:03:24.561Z,7.86
2016-11-26T08:04:05.112Z,7.83
2016-11-26T08:04:45.654Z,7.85
2016-11-26T08:05:26.187Z,7.83
2016-11-26T08:06:06.726Z,7.86
2016-11-26T08:06:47.267Z,7.79
2016-11-26T08:07:27.808Z,7.9
2016-11-26T08:08:08.346Z,7.86
2016-11-26T08:08:48.879Z,7.79
2016-11-26T08:09:29.427Z,7.75
2016-11-26T08:10:09.963Z,7.85
2016-11-26T08:10:50.491Z,7.83
2016-11-26T08:11:31.030Z,7.87
2016-11-26T08:12:11.570Z,7.93
2016-11-26T08:12:52.128Z,7.93
2016-11-26T08:13:32.656Z,7.89
2016-11-26T08:14:13.188Z,7.89
2016-11-26T08:14:53.733Z,7.9
2016-11-26T08:15:34.256Z,7.93
2016-11-26T08:16:14.793Z,7.95
2016-11-26T08:16:55.336Z,8
2016-11-26T08:17:35.882Z,8
2016-11-26T08:18:16.434Z,7.98
2016-11-26T08:18:56.983Z,7.95
2016-11-26T08:19:37.532Z,7.92
2016-11-26T08:20:18.067Z,7.9
2016-11-26T08:20:58.617Z,7.87
2016-11-26T08:21:39.163Z,7.86
2016-11-26T08:23:53.415Z,7.9
2016-11-26T08:24:33.957Z,7.95
2016-11-26T08:25:14.495Z,7.93
2016-11-26T08:25:55.035Z,7.92
2016-11-26T08:26:35.560Z,7.9
2016-11-26T08:27:16.105Z,7.97
2016-11-26T08:27:56.649Z,7.93
2016-11-26T08:28:37.186Z,8
2016-11-26T08:29:17.731Z,7.92
2016-11-26T08:29:58.255Z,7.9
2016-11-26T08:30:38.794Z,7.98
2016-11-26T08:31:19.325Z,7.93
2016-11-26T08:31:59.853Z,7.95
2016-11-26T08:32:40.431Z,8.01
2016-11-26T08:33:20.962Z,7.95
2016-11-26T08:34:01.492Z,7.98
2016-11-26T08:34:42.030Z,7.97
2016-11-26T08:35:22.566Z,7.95
2016-11-26T08:36:03.094Z,7.93
2016-11-26T08:36:43.635Z,7.93
2016-11-26T08:37:24.180Z,7.97
2016-11-26T08:38:04.713Z,8.01
2016-11-26T08:38:45.255Z,8.07
2016-11-26T08:39:25.791Z,8
2016-11-26T08:40:06.341Z,8.05
2016-11-26T08:40:46.877Z,8.04
2016-11-26T08:41:27.422Z,7.98
2016-11-26T08:42:07.963Z,8.04
2016-11-26T08:42:48.504Z,7.95
2016-11-26T08:43:29.046Z,7.93
2016-11-26T08:44:09.575Z,8.01
2016-11-26T08:44:50.119Z,7.97
2016-11-26T08:45:30.660Z,7.95
2016-11-26T08:46:11.199Z,7.97
2016-11-26T08:46:51.741Z,7.98
2016-11-26T08:47:32.270Z,7.97
2016-11-26T08:48:12.806Z,7.93
2016-11-26T08:48:53.341Z,7.9
2016-11-26T08:49:33.883Z,8
2016-11-26T08:50:14.427Z,8.05
2016-11-26T08:50:54.976Z,7.97
2016-11-26T08:51:35.500Z,8.1
2016-11-26T08:52:16.040Z,8.11
2016-11-26T08:52:56.585Z,8.07
2016-11-26T08:53:37.121Z,8.04
2016-11-26T08:54:17.664Z,8.05
2016-11-26T08:54:58.201Z,8.05
2016-11-26T08:55:38.745Z,8.02
2016-11-26T08:56:19.279Z,8.08
2016-11-26T08:56:59.814Z,8.08
2016-11-26T08:57:40.358Z,8.11
2016-11-26T08:58:20.912Z,8.1
2016-11-26T08:59:01.460Z,8.22
2016-11-26T08:59:42.011Z,8.16
2016-11-26T09:00:22.529Z,8.23
2016-11-26T09:01:03.067Z,8.23
2016-11-26T09:01:43.608Z,8.23
2016-11-26T09:02:24.150Z,8.19
2016-11-26T09:03:04.684Z,8.23
2016-11-26T09:03:45.215Z,8.2
2016-11-26T09:04:25.774Z,8.23
2016-11-26T09:05:06.314Z,8.25
2016-11-26T09:05:46.849Z,8.28
2016-11-26T09:06:27.393Z,8.28
2016-11-26T09:07:07.931Z,8.26
2016-11-26T09:07:48.477Z,8.23
2016-11-26T09:08:29.029Z,8.29
2016-11-26T09:09:09.585Z,8.29
2016-11-26T09:09:50.124Z,8.23
2016-11-26T09:10:30.665Z,8.37
2016-11-26T09:11:11.198Z,8.28
2016-11-26T09:11:51.772Z,8.37
2016-11-26T09:12:32.309Z,8.37
2016-11-26T09:13:12.844Z,8.26
2016-11-26T09:13:53.387Z,8.41
2016-11-26T09:14:33.915Z,8.34
2016-11-26T09:15:14.449Z,8.45
2016-11-26T09:15:54.993Z,8.43
2016-11-26T09:16:35.526Z,8.45
2016-11-26T09:17:16.062Z,8.5
2016-11-26T09:17:56.592Z,8.43
2016-11-26T09:18:37.130Z,8.44
2016-11-26T09:19:17.669Z,8.47
2016-11-26T09:19:58.207Z,8.44
2016-11-26T09:20:38.748Z,8.48
2016-11-26T09:21:19.289Z,8.48
2016-11-26T09:21:59.824Z,8.53
2016-11-26T09:22:40.351Z,8.47
2016-11-26T09:23:20.892Z,8.61
2016-11-26T09:24:01.446Z,8.62
2016-11-26T09:24:41.985Z,8.52
2016-11-26T09:25:22.531Z,8.5
2016-11-26T09:26:03.065Z,8.56
2016-11-26T09:26:43.617Z,8.66
2016-11-26T09:27:24.177Z,8.66
2016-11-26T09:28:04.928Z,8.58
2016-11-26T09:28:45.929Z,8.55
2016-11-26T09:29:26.500Z,8.59
2016-11-26T09:30:07.028Z,8.52
2016-11-26T09:30:47.556Z,8.58
2016-11-26T09:31:28.095Z,8.58
2016-11-26T09:32:08.633Z,8.63
2016-11-26T09:32:49.167Z,8.68
2016-11-26T09:33:29.713Z,8.61
2016-11-26T09:34:10.252Z,8.66
2016-11-26T09:34:50.787Z,8.62
2016-11-26T09:35:31.311Z,8.58
2016-11-26T09:36:11.860Z,8.61
2016-11-26T09:36:52.407Z,8.65
2016-11-26T09:37:32.931Z,8.71
2016-11-26T09:38:13.474Z,8.76
2016-11-26T09:38:54.013Z,8.71
2016-11-26T09:39:34.555Z,8.77
2016-11-26T09:40:15.083Z,8.66
2016-11-26T09:40:55.610Z,8.76
2016-11-26T09:41:36.170Z,8.71
2016-11-26T09:42:16.720Z,8.79
2016-11-26T09:42:57.265Z,8.73
2016-11-26T09:43:37.804Z,8.76
2016-11-26T09:44:18.346Z,8.74